sensor_id;sensor_type;location;lat;lon;timestamp;pressure;altitude;pressure_sealevel;temperature;humidity
70758;BME280;59316;52.964;7.102;2023-05-25T00:04:41;63551.88;;;-143.20;100.00
70758;BME280;59316;52.964;7.102;2023-05-25T00:10:04;63551.88;;;-143.20;100.00
70758;BME280;59316;52.964;7.102;2023-05-25T00:15:26;63551.88;;;-143.20;100.00
70758;BME280;59316;52.964;7.102;2023-05-25T00:20:51;63551.88;;;-143.20;100.00
70758;BME280;59316;52.964;7.102;2023-05-25T00:26:12;63551.88;;;-143.20;100.00
70758;BME280;59316;52.964;7.102;2023-05-25T00:31:34;63551.88;;;-143.20;100.00
70758;BME280;59316;52.964;7.102;2023-05-25T00:36:55;63551.88;;;-143.20;100.00
70758;BME280;59316;52.964;7.102;2023-05-25T00:42:17;63551.88;;;-143.20;100.00
70758;BME280;59316;52.964;7.102;2023-05-25T00:47:39;63551.88;;;-143.20;100.00
70758;BME280;59316;52.964;7.102;2023-05-25T00:53:00;63551.88;;;-143.20;100.00
70758;BME280;59316;52.964;7.102;2023-05-25T00:58:23;63551.88;;;-143.20;100.00
70758;BME280;59316;52.964;7.102;2023-05-25T01:03:50;63551.88;;;-143.20;100.00
70758;BME280;59316;52.964;7.102;2023-05-25T01:09:15;63551.88;;;-143.20;100.00
70758;BME280;59316;52.964;7.102;2023-05-25T01:14:37;63551.88;;;-143.20;100.00
70758;BME280;59316;52.964;7.102;2023-05-25T01:19:59;63551.88;;;-143.20;100.00
70758;BME280;59316;52.964;7.102;2023-05-25T01:25:35;63551.88;;;-143.20;100.00
70758;BME280;59316;52.964;7.102;2023-05-25T01:30:59;63551.88;;;-143.20;100.00
70758;BME280;59316;52.964;7.102;2023-05-25T01:36:21;63551.88;;;-143.20;100.00
70758;BME280;59316;52.964;7.102;2023-05-25T01:41:42;63551.88;;;-143.20;100.00
70758;BME280;59316;52.964;7.102;2023-05-25T01:47:15;63551.88;;;-143.20;100.00
70758;BME280;59316;52.964;7.102;2023-05-25T01:53:03;63551.88;;;-143.20;100.00
70758;BME280;59316;52.964;7.102;2023-05-25T01:58:35;63551.88;;;-143.20;100.00
70758;BME280;59316;52.964;7.102;2023-05-25T02:03:59;63551.88;;;-143.20;100.00
70758;BME280;59316;52.964;7.102;2023-05-25T02:09:21;63551.88;;;-143.20;100.00
70758;BME280;59316;52.964;7.102;2023-05-25T02:14:43;63551.88;;;-143.20;100.00
70758;BME280;59316;52.964;7.102;2023-05-25T02:20:05;63551.88;;;-143.20;100.00
70758;BME280;59316;52.964;7.102;2023-05-25T02:25:27;63551.88;;;-143.20;100.00
70758;BME280;59316;52.964;7.102;2023-05-25T02:30:49;63551.88;;;-143.20;100.00
70758;BME280;59316;52.964;7.102;2023-05-25T02:36:11;63551.88;;;-143.20;100.00
70758;BME280;59316;52.964;7.102;2023-05-25T02:41:34;63551.88;;;-143.20;100.00
70758;BME280;59316;52.964;7.102;2023-05-25T02:46:55;63551.88;;;-143.20;100.00
70758;BME280;59316;52.964;7.102;2023-05-25T02:52:17;63551.88;;;-143.20;100.00
70758;BME280;59316;52.964;7.102;2023-05-25T02:57:39;63551.88;;;-143.20;100.00
70758;BME280;59316;52.964;7.102;2023-05-25T03:03:01;63551.88;;;-143.20;100.00
70758;BME280;59316;52.964;7.102;2023-05-25T03:08:23;63551.88;;;-143.20;100.00
70758;BME280;59316;52.964;7.102;2023-05-25T03:13:46;63551.88;;;-143.20;100.00
70758;BME280;59316;52.964;7.102;2023-05-25T03:19:10;63551.88;;;-143.20;100.00
70758;BME280;59316;52.964;7.102;2023-05-25T03:24:31;63551.88;;;-143.20;100.00
70758;BME280;59316;52.964;7.102;2023-05-25T03:29:55;63551.88;;;-143.20;100.00
70758;BME280;59316;52.964;7.102;2023-05-25T03:35:17;63551.88;;;-143.20;100.00
70758;BME280;59316;52.964;7.102;2023-05-25T03:40:38;63551.88;;;-143.20;100.00
70758;BME280;59316;52.964;7.102;2023-05-25T03:46:00;63551.88;;;-143.20;100.00
70758;BME280;59316;52.964;7.102;2023-05-25T03:51:22;63551.88;;;-143.20;100.00
70758;BME280;59316;52.964;7.102;2023-05-25T03:56:43;63551.88;;;-143.20;100.00
70758;BME280;59316;52.964;7.102;2023-05-25T04:02:05;63551.88;;;-143.20;100.00
70758;BME280;59316;52.964;7.102;2023-05-25T04:07:26;63551.88;;;-143.20;100.00
70758;BME280;59316;52.964;7.102;2023-05-25T04:12:48;63551.88;;;-143.20;100.00
70758;BME280;59316;52.964;7.102;2023-05-25T04:18:09;63551.88;;;-143.20;100.00
70758;BME280;59316;52.964;7.102;2023-05-25T04:23:31;63551.88;;;-143.20;100.00
70758;BME280;59316;52.964;7.102;2023-05-25T04:28:53;63551.88;;;-143.20;100.00
70758;BME280;59316;52.964;7.102;2023-05-25T04:34:23;63551.88;;;-143.20;100.00
70758;BME280;59316;52.964;7.102;2023-05-25T04:39:54;63551.88;;;-143.20;100.00
70758;BME280;59316;52.964;7.102;2023-05-25T04:45:16;63551.88;;;-143.20;100.00
70758;BME280;59316;52.964;7.102;2023-05-25T04:50:40;63551.88;;;-143.20;100.00
70758;BME280;59316;52.964;7.102;2023-05-25T04:56:02;63551.88;;;-143.20;100.00
70758;BME280;59316;52.964;7.102;2023-05-25T05:01:24;63551.88;;;-143.20;100.00
70758;BME280;59316;52.964;7.102;2023-05-25T05:06:48;63551.88;;;-143.20;100.00
70758;BME280;59316;52.964;7.102;2023-05-25T05:12:12;63551.88;;;-143.20;100.00
70758;BME280;59316;52.964;7.102;2023-05-25T05:17:40;63551.88;;;-143.20;100.00
70758;BME280;59316;52.964;7.102;2023-05-25T05:23:03;63551.88;;;-143.20;100.00
70758;BME280;59316;52.964;7.102;2023-05-25T05:28:26;63551.88;;;-143.20;100.00
70758;BME280;59316;52.964;7.102;2023-05-25T05:33:48;63551.88;;;-143.20;100.00
70758;BME280;59316;52.964;7.102;2023-05-25T05:39:10;63551.88;;;-143.20;100.00
70758;BME280;59316;52.964;7.102;2023-05-25T05:44:32;63551.88;;;-143.20;100.00
70758;BME280;59316;52.964;7.102;2023-05-25T05:49:54;63551.88;;;-143.20;100.00
70758;BME280;59316;52.964;7.102;2023-05-25T05:55:16;63551.88;;;-143.20;100.00
70758;BME280;59316;52.964;7.102;2023-05-25T06:00:38;63551.88;;;-143.20;100.00
70758;BME280;59316;52.964;7.102;2023-05-25T06:06:00;63551.88;;;-143.20;100.00
70758;BME280;59316;52.964;7.102;2023-05-25T06:11:21;63551.88;;;-143.20;100.00
70758;BME280;59316;52.964;7.102;2023-05-25T06:16:46;63551.88;;;-143.20;100.00
70758;BME280;59316;52.964;7.102;2023-05-25T06:22:07;63551.88;;;-143.20;100.00
70758;BME280;59316;52.964;7.102;2023-05-25T06:27:32;63551.88;;;-143.20;100.00
70758;BME280;59316;52.964;7.102;2023-05-25T06:32:55;63551.88;;;-143.20;100.00
70758;BME280;59316;52.964;7.102;2023-05-25T06:38:21;63551.88;;;-143.20;100.00
70758;BME280;59316;52.964;7.102;2023-05-25T06:43:42;63551.88;;;-143.20;100.00
70758;BME280;59316;52.964;7.102;2023-05-25T06:49:24;63551.88;;;-143.20;100.00
70758;BME280;59316;52.964;7.102;2023-05-25T06:54:45;63551.88;;;-143.20;100.00
70758;BME280;59316;52.964;7.102;2023-05-25T07:00:07;63551.88;;;-143.20;100.00
70758;BME280;59316;52.964;7.102;2023-05-25T07:05:29;63551.88;;;-143.20;100.00
70758;BME280;59316;52.964;7.102;2023-05-25T07:10:50;63551.88;;;-143.20;100.00
70758;BME280;59316;52.964;7.102;2023-05-25T07:16:12;63551.88;;;-143.20;100.00
70758;BME280;59316;52.964;7.102;2023-05-25T07:21:34;63551.88;;;-143.20;100.00
70758;BME280;59316;52.964;7.102;2023-05-25T07:26:55;63551.88;;;-143.20;100.00
70758;BME280;59316;52.964;7.102;2023-05-25T07:32:17;63551.88;;;-143.20;100.00
70758;BME280;59316;52.964;7.102;2023-05-25T07:37:39;63551.88;;;-143.20;100.00
70758;BME280;59316;52.964;7.102;2023-05-25T07:43:00;63551.88;;;-143.20;100.00
70758;BME280;59316;52.964;7.102;2023-05-25T07:48:22;63551.88;;;-143.20;100.00
70758;BME280;59316;52.964;7.102;2023-05-25T07:53:43;63551.88;;;-143.20;100.00
70758;BME280;59316;52.964;7.102;2023-05-25T07:59:05;63551.88;;;-143.20;100.00
70758;BME280;59316;52.964;7.102;2023-05-25T08:04:26;63551.88;;;-143.20;100.00
70758;BME280;59316;52.964;7.102;2023-05-25T08:09:47;63551.88;;;-143.20;100.00
70758;BME280;59316;52.964;7.102;2023-05-25T08:15:09;63551.88;;;-143.20;100.00
70758;BME280;59316;52.964;7.102;2023-05-25T08:20:30;63551.88;;;-143.20;100.00
70758;BME280;59316;52.964;7.102;2023-05-25T08:25:52;63551.88;;;-143.20;100.00
70758;BME280;59316;52.964;7.102;2023-05-25T08:31:13;63551.88;;;194.85;100.00
70758;BME280;59316;52.964;7.102;2023-05-25T08:36:35;63551.88;;;-143.20;100.00
70758;BME280;59316;52.964;7.102;2023-05-25T08:41:56;63551.88;;;-143.20;100.00
70758;BME280;59316;52.964;7.102;2023-05-25T08:47:21;63551.88;;;-143.20;100.00
70758;BME280;59316;52.964;7.102;2023-05-25T09:08:58;63551.88;;;194.85;100.00
70758;BME280;59316;52.964;7.102;2023-05-25T09:14:20;63551.88;;;194.85;100.00
70758;BME280;59316;52.964;7.102;2023-05-25T09:19:43;63551.88;;;-143.20;100.00
70758;BME280;59316;52.964;7.102;2023-05-25T09:30:27;63551.88;;;46.80;100.00
70758;BME280;59316;52.964;7.102;2023-05-25T09:41:11;63551.88;;;25.67;100.00
70758;BME280;59316;52.964;7.102;2023-05-25T09:46:35;63551.88;;;25.67;100.00
70758;BME280;59316;52.964;7.102;2023-05-25T09:51:57;63551.88;;;46.80;100.00
70758;BME280;59316;52.964;7.102;2023-05-25T09:57:19;63551.88;;;194.85;100.00
70758;BME280;59316;52.964;7.102;2023-05-25T10:02:40;63551.88;;;67.94;100.00
70758;BME280;59316;52.964;7.102;2023-05-25T10:08:02;63551.88;;;67.94;100.00
70758;BME280;59316;52.964;7.102;2023-05-25T10:13:26;63551.88;;;25.67;100.00
70758;BME280;59316;52.964;7.102;2023-05-25T10:18:54;63551.88;;;46.80;100.00
70758;BME280;59316;52.964;7.102;2023-05-25T10:24:31;63551.88;;;110.22;100.00
70758;BME280;59316;52.964;7.102;2023-05-25T10:29:58;63551.88;;;46.80;100.00
70758;BME280;59316;52.964;7.102;2023-05-25T10:35:22;63551.88;;;25.67;100.00
70758;BME280;59316;52.964;7.102;2023-05-25T10:40:45;63551.88;;;25.67;100.00
70758;BME280;59316;52.964;7.102;2023-05-25T10:46:07;63551.88;;;-143.20;100.00
70758;BME280;59316;52.964;7.102;2023-05-25T10:51:39;63551.88;;;25.67;100.00
70758;BME280;59316;52.964;7.102;2023-05-25T10:57:27;63551.88;;;-143.20;100.00
70758;BME280;59316;52.964;7.102;2023-05-25T11:13:42;63551.88;;;110.22;100.00
70758;BME280;59316;52.964;7.102;2023-05-25T11:19:13;63551.88;;;-143.20;100.00
70758;BME280;59316;52.964;7.102;2023-05-25T11:24:35;63551.88;;;-143.20;100.00
70758;BME280;59316;52.964;7.102;2023-05-25T11:29:57;63551.88;;;-143.20;100.00
70758;BME280;59316;52.964;7.102;2023-05-25T11:35:20;63551.88;;;-143.20;100.00
70758;BME280;59316;52.964;7.102;2023-05-25T11:40:41;63551.88;;;-143.20;100.00
70758;BME280;59316;52.964;7.102;2023-05-25T11:51:30;63551.88;;;-143.20;100.00
70758;BME280;59316;52.964;7.102;2023-05-25T12:02:13;63551.88;;;-143.20;100.00
70758;BME280;59316;52.964;7.102;2023-05-25T12:07:41;63551.88;;;-143.20;100.00
70758;BME280;59316;52.964;7.102;2023-05-25T12:23:49;63551.88;;;-143.20;100.00
70758;BME280;59316;52.964;7.102;2023-05-25T12:29:10;63551.88;;;-143.20;100.00
70758;BME280;59316;52.964;7.102;2023-05-25T12:34:32;63551.88;;;-143.20;100.00
70758;BME280;59316;52.964;7.102;2023-05-25T12:39:53;63551.88;;;-143.20;100.00
70758;BME280;59316;52.964;7.102;2023-05-25T12:45:15;63551.88;;;-143.20;100.00
70758;BME280;59316;52.964;7.102;2023-05-25T12:50:37;63551.88;;;-143.20;100.00
70758;BME280;59316;52.964;7.102;2023-05-25T13:06:44;63551.88;;;-143.20;100.00
70758;BME280;59316;52.964;7.102;2023-05-25T13:12:06;63551.88;;;-143.20;100.00
70758;BME280;59316;52.964;7.102;2023-05-25T13:17:27;63551.88;;;-143.20;100.00
70758;BME280;59316;52.964;7.102;2023-05-25T13:22:51;63551.88;;;-143.20;100.00
70758;BME280;59316;52.964;7.102;2023-05-25T13:28:13;63551.88;;;-143.20;100.00
70758;BME280;59316;52.964;7.102;2023-05-25T13:38:55;63551.88;;;-143.20;100.00
70758;BME280;59316;52.964;7.102;2023-05-25T13:44:16;63551.88;;;-143.20;100.00
70758;BME280;59316;52.964;7.102;2023-05-25T13:49:38;63551.88;;;-143.20;100.00
70758;BME280;59316;52.964;7.102;2023-05-25T14:00:20;63551.88;;;-143.20;100.00
70758;BME280;59316;52.964;7.102;2023-05-25T14:05:42;63551.88;;;-143.20;100.00
70758;BME280;59316;52.964;7.102;2023-05-25T14:11:04;63551.88;;;-143.20;100.00
70758;BME280;59316;52.964;7.102;2023-05-25T14:16:25;63551.88;;;-143.20;100.00
70758;BME280;59316;52.964;7.102;2023-05-25T14:32:49;63551.88;;;-143.20;100.00
70758;BME280;59316;52.964;7.102;2023-05-25T14:38:10;63551.88;;;-143.20;100.00
70758;BME280;59316;52.964;7.102;2023-05-25T14:43:32;63551.88;;;-143.20;100.00
70758;BME280;59316;52.964;7.102;2023-05-25T14:48:53;63551.88;;;-143.20;100.00
70758;BME280;59316;52.964;7.102;2023-05-25T14:54:15;63551.88;;;-143.20;100.00
70758;BME280;59316;52.964;7.102;2023-05-25T14:59:37;63551.88;;;-143.20;100.00
70758;BME280;59316;52.964;7.102;2023-05-25T15:04:58;63551.88;;;-143.20;100.00
70758;BME280;59316;52.964;7.102;2023-05-25T15:10:20;63551.88;;;-143.20;100.00
70758;BME280;59316;52.964;7.102;2023-05-25T15:15:41;63551.88;;;-143.20;100.00
70758;BME280;59316;52.964;7.102;2023-05-25T15:21:03;63551.88;;;-143.20;100.00
70758;BME280;59316;52.964;7.102;2023-05-25T15:26:25;63551.88;;;-143.20;100.00
70758;BME280;59316;52.964;7.102;2023-05-25T15:31:49;63551.88;;;-143.20;100.00
70758;BME280;59316;52.964;7.102;2023-05-25T15:37:11;63551.88;;;-143.20;100.00
70758;BME280;59316;52.964;7.102;2023-05-25T15:42:32;63551.88;;;-143.20;100.00
70758;BME280;59316;52.964;7.102;2023-05-25T15:47:54;63551.88;;;-143.20;100.00
70758;BME280;59316;52.964;7.102;2023-05-25T15:53:15;63551.88;;;-143.20;100.00
70758;BME280;59316;52.964;7.102;2023-05-25T15:58:37;63551.88;;;-143.20;100.00
70758;BME280;59316;52.964;7.102;2023-05-25T16:03:59;63551.88;;;-143.20;100.00
70758;BME280;59316;52.964;7.102;2023-05-25T16:09:21;63551.88;;;-143.20;100.00
70758;BME280;59316;52.964;7.102;2023-05-25T16:14:42;63551.88;;;-143.20;100.00
70758;BME280;59316;52.964;7.102;2023-05-25T16:20:04;63551.88;;;-143.20;100.00
70758;BME280;59316;52.964;7.102;2023-05-25T16:25:26;63551.88;;;-143.20;100.00
70758;BME280;59316;52.964;7.102;2023-05-25T16:30:47;63551.88;;;-143.20;100.00
70758;BME280;59316;52.964;7.102;2023-05-25T16:36:09;63551.88;;;-143.20;100.00
70758;BME280;59316;52.964;7.102;2023-05-25T16:41:30;63551.88;;;-143.20;100.00
70758;BME280;59316;52.964;7.102;2023-05-25T16:52:12;63551.88;;;-143.20;100.00
70758;BME280;59316;52.964;7.102;2023-05-25T16:57:34;63551.88;;;-143.20;100.00
70758;BME280;59316;52.964;7.102;2023-05-25T17:02:55;63551.88;;;-143.20;100.00
70758;BME280;59316;52.964;7.102;2023-05-25T17:13:38;63551.88;;;-143.20;100.00
70758;BME280;59316;52.964;7.102;2023-05-25T17:24:21;63551.88;;;-143.20;100.00
70758;BME280;59316;52.964;7.102;2023-05-25T17:29:42;63551.88;;;-143.20;100.00
70758;BME280;59316;52.964;7.102;2023-05-25T17:35:04;63551.88;;;-143.20;100.00
70758;BME280;59316;52.964;7.102;2023-05-25T17:40:25;63551.88;;;-143.20;100.00
70758;BME280;59316;52.964;7.102;2023-05-25T17:45:47;63551.88;;;-143.20;100.00
70758;BME280;59316;52.964;7.102;2023-05-25T17:51:08;63551.88;;;-143.20;100.00
70758;BME280;59316;52.964;7.102;2023-05-25T17:56:30;63551.88;;;-143.20;100.00
70758;BME280;59316;52.964;7.102;2023-05-25T18:01:51;63551.88;;;-143.20;100.00
70758;BME280;59316;52.964;7.102;2023-05-25T18:07:13;63551.88;;;-143.20;100.00
70758;BME280;59316;52.964;7.102;2023-05-25T18:17:55;63551.88;;;-143.20;100.00
70758;BME280;59316;52.964;7.102;2023-05-25T18:23:17;63551.88;;;25.67;100.00
70758;BME280;59316;52.964;7.102;2023-05-25T18:28:38;63551.88;;;-143.20;100.00
70758;BME280;59316;52.964;7.102;2023-05-25T18:34:00;63551.88;;;25.67;100.00
70758;BME280;59316;52.964;7.102;2023-05-25T18:39:21;63551.88;;;-143.20;100.00
70758;BME280;59316;52.964;7.102;2023-05-25T18:44:43;63551.88;;;25.67;100.00
70758;BME280;59316;52.964;7.102;2023-05-25T18:55:26;63551.88;;;25.67;100.00
70758;BME280;59316;52.964;7.102;2023-05-25T19:00:48;63551.88;;;25.67;100.00
70758;BME280;59316;52.964;7.102;2023-05-25T19:06:09;63551.88;;;25.67;100.00
70758;BME280;59316;52.964;7.102;2023-05-25T19:11:31;63551.88;;;25.67;100.00
70758;BME280;59316;52.964;7.102;2023-05-25T19:16:52;63551.88;;;25.67;100.00
70758;BME280;59316;52.964;7.102;2023-05-25T19:27:35;63551.88;;;25.67;100.00
70758;BME280;59316;52.964;7.102;2023-05-25T19:32:56;63551.88;;;25.67;100.00
70758;BME280;59316;52.964;7.102;2023-05-25T19:38:18;63551.88;;;25.67;100.00
70758;BME280;59316;52.964;7.102;2023-05-25T19:43:40;63551.88;;;25.67;100.00
70758;BME280;59316;52.964;7.102;2023-05-25T19:49:02;63551.88;;;46.80;100.00
70758;BME280;59316;52.964;7.102;2023-05-25T19:54:23;63551.88;;;36.24;100.00
70758;BME280;59316;52.964;7.102;2023-05-25T19:59:45;63551.88;;;110.22;100.00
70758;BME280;59316;52.964;7.102;2023-05-25T20:05:07;63551.88;;;46.80;100.00
70758;BME280;59316;52.964;7.102;2023-05-25T20:15:49;63551.88;;;46.80;100.00
70758;BME280;59316;52.964;7.102;2023-05-25T20:21:11;63551.88;;;46.80;100.00
70758;BME280;59316;52.964;7.102;2023-05-25T20:26:32;63551.88;;;46.80;100.00
70758;BME280;59316;52.964;7.102;2023-05-25T20:31:54;63551.88;;;67.94;100.00
70758;BME280;59316;52.964;7.102;2023-05-25T20:37:15;63551.88;;;110.22;100.00
70758;BME280;59316;52.964;7.102;2023-05-25T20:42:37;63551.88;;;46.80;100.00
70758;BME280;59316;52.964;7.102;2023-05-25T20:53:21;63551.88;;;46.80;100.00
70758;BME280;59316;52.964;7.102;2023-05-25T20:58:42;63551.88;;;25.67;100.00
70758;BME280;59316;52.964;7.102;2023-05-25T21:04:04;63551.88;;;110.22;100.00
70758;BME280;59316;52.964;7.102;2023-05-25T21:09:25;63551.88;;;110.22;100.00
70758;BME280;59316;52.964;7.102;2023-05-25T21:14:46;63551.88;;;67.94;100.00
70758;BME280;59316;52.964;7.102;2023-05-25T21:20:08;63551.88;;;194.85;100.00
70758;BME280;59316;52.964;7.102;2023-05-25T21:25:30;63551.88;;;194.85;100.00
70758;BME280;59316;52.964;7.102;2023-05-25T21:36:13;63551.88;;;-143.20;100.00
70758;BME280;59316;52.964;7.102;2023-05-25T21:41:34;63551.88;;;194.85;100.00
70758;BME280;59316;52.964;7.102;2023-05-25T21:46:55;63551.88;;;-143.20;100.00
70758;BME280;59316;52.964;7.102;2023-05-25T21:57:38;63551.88;;;-143.20;100.00
70758;BME280;59316;52.964;7.102;2023-05-25T22:03:00;63551.88;;;-143.20;100.00
70758;BME280;59316;52.964;7.102;2023-05-25T22:08:21;63551.88;;;194.85;100.00
70758;BME280;59316;52.964;7.102;2023-05-25T22:13:43;63551.88;;;-143.20;100.00
70758;BME280;59316;52.964;7.102;2023-05-25T22:19:04;63551.88;;;-143.20;100.00
70758;BME280;59316;52.964;7.102;2023-05-25T22:24:26;63551.88;;;-143.20;100.00
70758;BME280;59316;52.964;7.102;2023-05-25T22:29:47;63551.88;;;-143.20;100.00
70758;BME280;59316;52.964;7.102;2023-05-25T22:35:09;63551.88;;;-143.20;100.00
70758;BME280;59316;52.964;7.102;2023-05-25T22:40:30;63551.88;;;25.67;100.00
70758;BME280;59316;52.964;7.102;2023-05-25T22:45:52;63551.88;;;25.67;100.00
70758;BME280;59316;52.964;7.102;2023-05-25T22:51:13;63551.88;;;-143.20;100.00
70758;BME280;59316;52.964;7.102;2023-05-25T22:56:35;63551.88;;;-143.20;100.00
70758;BME280;59316;52.964;7.102;2023-05-25T23:01:56;63551.88;;;-143.20;100.00
70758;BME280;59316;52.964;7.102;2023-05-25T23:07:17;63551.88;;;-143.20;100.00
70758;BME280;59316;52.964;7.102;2023-05-25T23:12:39;63551.88;;;-143.20;100.00
70758;BME280;59316;52.964;7.102;2023-05-25T23:18:01;63551.88;;;-143.20;100.00
70758;BME280;59316;52.964;7.102;2023-05-25T23:23:22;63551.88;;;-143.20;100.00
70758;BME280;59316;52.964;7.102;2023-05-25T23:28:44;63551.88;;;-143.20;100.00
70758;BME280;59316;52.964;7.102;2023-05-25T23:34:05;63551.88;;;25.67;100.00
70758;BME280;59316;52.964;7.102;2023-05-25T23:39:27;63551.88;;;25.67;100.00
70758;BME280;59316;52.964;7.102;2023-05-25T23:44:48;63551.88;;;25.71;100.00
70758;BME280;59316;52.964;7.102;2023-05-25T23:50:09;63551.88;;;-143.20;100.00
70758;BME280;59316;52.964;7.102;2023-05-25T23:55:31;63551.88;;;-143.20;100.00
